• Join FlightAware (Why Join?)
  • Login
  • US Flag 
02:45AM EDT


 

Airport Tracker/Info


-or-


 

Live Flight TrackerFlight Track Log ✈ FLG3787 ✈ 30-Jun-2013 ✈ KBDL - KCVG

Flight Track Log - Related Links

Times and Time Zones

All times are in EDT time to prevent confusion due to time zone crossing. See the FLG3787 flight status page for this flight to view local times or setup timezone preferences in your user account.

Time Position Orientation Groundspeed Altitude Reporting Facility
EDT Latitude Longitude Course Direction KTS MPH feet Rate Location/Type
07:08AM 41.9292 -72.7025 265° West 157 181 1,000  Level Boston Center
07:09AM 41.9289 -72.7694 270° West 194 223 2,800 1,740 Climbing Boston Center
07:10AM 41.9872 -72.8144 330° Northwest 199 229 4,700 2,100 Climbing Boston Center
07:11AM 42.1987 -72.8769 334° Northwest  Level FlightAware Approximate
07:11AM 42.0619 -72.8456 343° North 224 258 7,100  Level Boston Center
07:12AM 42.2833 -72.9426 270° West  Level FlightAware Approximate
07:12AM 42.1472 -72.8825 342° North 274 315 9,900  Level Boston Center
07:13AM 42.2742 -73.0787 265° West  Level FlightAware Approximate
07:13AM 42.2222 -72.9167 341° North 301 346 11,100  Level Boston Center
07:14AM 42.2844 -73.0097 312° West 304 350 12,900 1,500 Climbing Boston Center
07:15AM 42.2775 -73.1164 265° West 285 328 14,200 1,380 Climbing Boston Center
07:16AM 42.2661 -73.2536 264° West 323 372 15,700 1,320 Climbing Boston Center
07:17AM 42.2550 -73.3686 263° West 341 392 16,900 1,140 Climbing Boston Center
07:18AM 42.2433 -73.4947 263° West 346 398 18,000 1,020 Climbing Boston Center
07:19AM 42.2317 -73.6233 263° West 351 404 19,000 900 Climbing Boston Center
07:20AM 42.2197 -73.7661 264° West 354 407 19,900 900 Climbing Boston Center
07:21AM 42.2078 -73.8947 263° West 359 413 20,800 720 Climbing Boston Center
07:22AM 42.1933 -74.0289 262° West 359 413 21,400 600 Climbing Boston Center
07:23AM 42.1808 -74.1658 263° West 370 426 22,100 840 Climbing Boston Center
07:24AM 42.1683 -74.3000 263° West 370 426 23,100 900 Climbing Boston Center
07:25AM 42.1581 -74.4117 263° West 370 426 23,900 900 Climbing Boston Center
07:26AM 42.1431 -74.5569 262° West 370 426 25,000 960 Climbing Boston Center
07:28AM 42.1206 -74.7664 262° West 364 419 26,400 720 Climbing New York Center
07:29AM 42.1056 -74.8994 261° West 364 419 26,900 480 Climbing New York Center
07:30AM 42.0969 -75.0247 265° West 369 425 27,400 480 Climbing New York Center
07:31AM 42.0817 -75.1606 261° West 369 425 27,900 240 Climbing New York Center
07:32AM 42.0661 -75.2964 261° West 369 425 28,000  Climbing New York Center
07:33AM 42.0194 -75.4272 244° Southwest 369 425 28,000  Level New York Center
07:34AM 41.9689 -75.5492 241° Southwest 374 430 28,000  Level New York Center
07:35AM 41.9136 -75.6761 240° Southwest 380 437 28,000  Level New York Center
07:36AM 41.8625 -75.8033 242° Southwest 387 445 28,000  Level New York Center
07:37AM 41.8092 -75.9300 241° Southwest 387 445 28,000  Level New York Center
07:38AM 41.7556 -76.0594 241° Southwest 392 451 28,000  Level New York Center
07:39AM 41.6997 -76.1883 240° Southwest 392 451 28,000  Level New York Center
07:40AM 41.6481 -76.3175 242° Southwest 397 457 28,000  Level New York Center
07:41AM 41.5919 -76.4458 240° Southwest 402 463 28,000  Level New York Center
07:42AM 41.5400 -76.5717 241° Southwest 402 463 28,000  Level New York Center
07:43AM 41.4817 -76.7025 239° Southwest 402 463 28,000  Level New York Center
07:44AM 41.4203 -76.8436 240° Southwest 402 463 28,000  Level New York Center
07:45AM 41.3658 -76.9714 240° Southwest 402 463 28,000  Level New York Center
07:46AM 41.3292 -77.1092 251° West 402 463 28,000  Level New York Center
07:47AM 41.3025 -77.2583 257° West 402 463 28,000  Level New York Center
07:48AM 41.2800 -77.4000 258° West 413 475 28,000  Level New York Center
07:50AM 41.2289 -77.6703 256° West 408 470 28,000  Level Cleveland Center
07:51AM 41.2031 -77.8150 257° West 408 470 28,000  Level Cleveland Center
07:52AM 41.1606 -77.9519 248° West 413 475 28,000  Level Cleveland Center
07:53AM 41.1156 -78.0861 246° West 408 470 28,000  Level Cleveland Center
07:54AM 41.0769 -78.2253 250° West 408 470 28,000  Level Cleveland Center
07:55AM 41.0442 -78.3586 252° West 414 476 28,000  Level Cleveland Center
07:56AM 41.0050 -78.4975 250° West 408 470 28,000  Level Cleveland Center
07:57AM 40.9658 -78.6389 250° West 408 470 28,000  Level Cleveland Center
07:58AM 40.9264 -78.7775 249° West 414 476 28,000  Level Cleveland Center
07:59AM 40.8869 -78.9186 250° West 414 476 28,000  Level Cleveland Center
08:00AM 40.8450 -79.0569 248° West 414 476 28,000  Level Cleveland Center
08:01AM 40.8050 -79.1978 249° West 414 476 28,000  Level Cleveland Center
08:02AM 40.7650 -79.3386 249° West 414 476 28,000  Level Cleveland Center
08:03AM 40.7247 -79.4761 249° West 414 476 28,000  Level Cleveland Center
08:04AM 40.6842 -79.6139 249° West 414 476 28,000  Level Cleveland Center
08:05AM 40.6417 -79.7539 248° West 414 476 28,000  Level Cleveland Center
08:06AM 40.6114 -79.8967 254° West 414 476 28,000  Level Cleveland Center
08:07AM 40.5831 -80.0664 258° West 414 476 28,000  Level Cleveland Center
08:08AM 40.5586 -80.2114 258° West 421 484 28,000  Level Cleveland Center
08:09AM 40.5381 -80.3592 260° West 421 484 28,000  Level Cleveland Center
08:10AM 40.5133 -80.5094 258° West 416 479 28,000  Level Cleveland Center
08:11AM 40.4903 -80.6567 258° West 416 479 28,000  Level Cleveland Center
08:12AM 40.4650 -80.8014 257° West 411 473 28,000  Level Cleveland Center
08:14AM 40.4131 -81.0911 257° West 414 476 28,000  Level Indianapolis Center
08:15AM 40.3883 -81.2433 258° West 420 483 28,000  Level Indianapolis Center
08:16AM 40.3619 -81.3958 257° West 424 488 28,000  Level Indianapolis Center
08:17AM 40.3292 -81.5464 254° West 427 491 28,000  Level Indianapolis Center
08:18AM 40.2869 -81.6928 249° West 424 488 28,000  Level Indianapolis Center
08:19AM 40.2433 -81.8389 249° West 426 490 28,000  Level Indianapolis Center
08:20AM 40.1961 -82.0036 249° West 431 496 28,000  Level Indianapolis Center
08:21AM 40.1544 -82.1519 250° West 431 496 28,000 -420 Level Indianapolis Center
08:22AM 40.1103 -82.3019 249° West 436 502 27,200 -900 Descending Indianapolis Center
08:23AM 40.0692 -82.4467 250° West 426 490 26,200 -1,020 Descending Indianapolis Center
08:24AM 40.0267 -82.5861 248° West 411 473 25,200 -1,020 Descending Indianapolis Center
08:25AM 39.9856 -82.7261 249° West 410 472 24,200 -1,080 Descending Indianapolis Center
08:26AM 39.9442 -82.8656 249° West 409 471 23,100 -600 Descending Indianapolis Center
08:27AM 39.9022 -83.0039 248° West 405 466 23,000 -60 Descending Indianapolis Center
08:28AM 39.8614 -83.1394 249° West 400 460 23,000  Level Indianapolis Center
08:29AM 39.8194 -83.2764 248° West 401 461 23,000  Level Indianapolis Center
08:30AM 39.7758 -83.4189 248° West 411 473 23,000 -600 Level Indianapolis Center
08:31AM 39.7306 -83.5681 249° West 427 491 21,800 -2,160 Descending Indianapolis Center
08:32AM 39.6797 -83.7056 244° Southwest 415 478 18,700 -3,060 Descending Indianapolis Center
08:33AM 39.6267 -83.8322 241° Southwest 398 458 15,600 -3,060 Descending Indianapolis Center
08:34AM 39.5669 -83.9481 236° Southwest 383 441 12,500 -2,280 Descending Indianapolis Center
08:35AM 39.4969 -84.0433 226° Southwest 366 421 11,000 -840 Descending Indianapolis Center
08:36AM 39.4503 -84.1483 240° Southwest 339 390 10,800 -840 Descending Indianapolis Center
08:37AM 39.4194 -84.2472 248° West 300 345 9,400 -960 Descending Indianapolis Center
08:38AM 39.4042 -84.3444 259° West 278 320 8,900 -720 Descending Indianapolis Center
08:39AM 39.3850 -84.4431 256° West 278 320 8,000 -960 Descending Indianapolis Center
08:40AM 39.3672 -84.5406 257° West 278 320 7,000 -1,020 Descending Indianapolis Center
08:41AM 39.3464 -84.6206 251° West 242 278 6,000 -900 Descending Indianapolis Center
08:42AM 39.3019 -84.6683 220° Southwest 218 251 5,200 -1,020 Descending Indianapolis Center
08:43AM 39.2269 -84.6681 180° South 227 261 4,000 -1,200 Descending Indianapolis Center